sensor_id;sensor_type;location;lat;lon;timestamp;pressure;altitude;pressure_sealevel;temperature;humidity
61506;BME280;47366;51.916;4.574;2023-05-02T05:45:44;102532.56;;;9.97;73.18
61506;BME280;47366;51.916;4.574;2023-05-02T05:48:09;102533.50;;;9.96;73.04
61506;BME280;47366;51.916;4.574;2023-05-02T05:50:34;102537.03;;;9.98;73.19
61506;BME280;47366;51.916;4.574;2023-05-02T05:53:00;102541.44;;;10.02;72.94
61506;BME280;47366;51.916;4.574;2023-05-02T05:55:26;102534.41;;;9.96;72.35
61506;BME280;47366;51.916;4.574;2023-05-02T05:57:51;102540.69;;;9.97;71.66
61506;BME280;47366;51.916;4.574;2023-05-02T06:00:17;102544.97;;;10.04;71.66
61506;BME280;47366;51.916;4.574;2023-05-02T06:02:43;102546.84;;;10.02;70.94
61506;BME280;47366;51.916;4.574;2023-05-02T06:05:08;102559.50;;;10.02;70.71
61506;BME280;47366;51.916;4.574;2023-05-02T06:07:33;102565.00;;;9.98;70.52
61506;BME280;47366;51.916;4.574;2023-05-02T06:09:59;102567.91;;;9.92;70.12
61506;BME280;47366;51.916;4.574;2023-05-02T06:12:24;102568.03;;;9.88;70.65
61506;BME280;47366;51.916;4.574;2023-05-02T06:14:50;102577.16;;;9.85;70.15
61506;BME280;47366;51.916;4.574;2023-05-02T06:17:15;102582.44;;;9.90;70.44
61506;BME280;47366;51.916;4.574;2023-05-02T06:19:41;102570.47;;;9.97;70.73
61506;BME280;47366;51.916;4.574;2023-05-02T06:22:06;102578.50;;;10.00;70.45
61506;BME280;47366;51.916;4.574;2023-05-02T06:24:31;102584.63;;;10.05;70.37
61506;BME280;47366;51.916;4.574;2023-05-02T06:26:57;102584.63;;;10.05;70.15
61506;BME280;47366;51.916;4.574;2023-05-02T06:29:22;102591.78;;;10.08;69.05
61506;BME280;47366;51.916;4.574;2023-05-02T06:31:48;102589.78;;;10.14;69.57
61506;BME280;47366;51.916;4.574;2023-05-02T06:34:15;102594.28;;;10.15;69.05
61506;BME280;47366;51.916;4.574;2023-05-02T06:36:40;102596.88;;;10.18;69.03
61506;BME280;47366;51.916;4.574;2023-05-02T06:39:05;102608.22;;;10.31;68.72
61506;BME280;47366;51.916;4.574;2023-05-02T06:41:31;102612.06;;;10.52;68.43
61506;BME280;47366;51.916;4.574;2023-05-02T06:43:56;102609.19;;;10.83;67.17
61506;BME280;47366;51.916;4.574;2023-05-02T06:46:21;102609.75;;;10.93;67.25
61506;BME280;47366;51.916;4.574;2023-05-02T06:48:47;102623.56;;;10.87;66.88
61506;BME280;47366;51.916;4.574;2023-05-02T06:51:13;102627.34;;;10.81;66.47
61506;BME280;47366;51.916;4.574;2023-05-02T06:53:39;102619.63;;;10.69;67.19
61506;BME280;47366;51.916;4.574;2023-05-02T06:56:04;102629.69;;;10.66;67.25
61506;BME280;47366;51.916;4.574;2023-05-02T06:58:30;102627.31;;;10.55;67.62
61506;BME280;47366;51.916;4.574;2023-05-02T07:00:56;102627.28;;;10.56;67.45
61506;BME280;47366;51.916;4.574;2023-05-02T07:03:21;102631.03;;;10.52;67.16
61506;BME280;47366;51.916;4.574;2023-05-02T07:05:46;102633.59;;;10.57;68.03
61506;BME280;47366;51.916;4.574;2023-05-02T07:08:12;102649.69;;;10.61;67.67
61506;BME280;47366;51.916;4.574;2023-05-02T07:10:37;102650.25;;;10.73;67.35
61506;BME280;47366;51.916;4.574;2023-05-02T07:13:02;102643.56;;;10.83;66.43
61506;BME280;47366;51.916;4.574;2023-05-02T07:15:28;102642.19;;;10.96;65.80
61506;BME280;47366;51.916;4.574;2023-05-02T07:17:53;102637.41;;;11.04;64.67
61506;BME280;47366;51.916;4.574;2023-05-02T07:20:18;102640.72;;;11.13;64.88
61506;BME280;47366;51.916;4.574;2023-05-02T07:22:44;102640.88;;;11.08;63.16
61506;BME280;47366;51.916;4.574;2023-05-02T07:25:09;102643.81;;;11.02;64.38
61506;BME280;47366;51.916;4.574;2023-05-02T07:27:35;102645.28;;;10.86;63.26
61506;BME280;47366;51.916;4.574;2023-05-02T07:30:00;102657.88;;;10.87;62.49
61506;BME280;47366;51.916;4.574;2023-05-02T07:32:26;102658.97;;;10.81;62.72
61506;BME280;47366;51.916;4.574;2023-05-02T07:34:51;102664.41;;;10.81;63.35
61506;BME280;47366;51.916;4.574;2023-05-02T07:37:21;102668.22;;;10.75;63.59
61506;BME280;47366;51.916;4.574;2023-05-02T07:39:47;102666.94;;;10.87;63.24
61506;BME280;47366;51.916;4.574;2023-05-02T07:42:12;102671.13;;;10.96;62.49
61506;BME280;47366;51.916;4.574;2023-05-02T07:44:37;102662.22;;;11.19;62.96
61506;BME280;47366;51.916;4.574;2023-05-02T07:47:03;102665.16;;;11.38;60.85
61506;BME280;47366;51.916;4.574;2023-05-02T07:49:28;102661.63;;;11.61;61.57
61506;BME280;47366;51.916;4.574;2023-05-02T07:51:55;102668.00;;;11.83;60.82
61506;BME280;47366;51.916;4.574;2023-05-02T07:54:21;102662.16;;;11.71;60.21
61506;BME280;47366;51.916;4.574;2023-05-02T07:56:46;102668.78;;;11.63;61.59
61506;BME280;47366;51.916;4.574;2023-05-02T07:59:13;102677.56;;;11.45;61.61
61506;BME280;47366;51.916;4.574;2023-05-02T08:01:39;102680.78;;;11.31;62.48
61506;BME280;47366;51.916;4.574;2023-05-02T08:04:09;102690.69;;;11.32;62.67
61506;BME280;47366;51.916;4.574;2023-05-02T08:06:35;102694.72;;;11.45;61.33
61506;BME280;47366;51.916;4.574;2023-05-02T08:09:01;102694.22;;;11.34;61.66
61506;BME280;47366;51.916;4.574;2023-05-02T08:11:26;102696.06;;;11.34;61.94
61506;BME280;47366;51.916;4.574;2023-05-02T08:13:51;102703.91;;;11.41;62.23
61506;BME280;47366;51.916;4.574;2023-05-02T08:16:17;102704.75;;;11.43;61.58
61506;BME280;47366;51.916;4.574;2023-05-02T08:18:43;102705.44;;;11.50;61.18
61506;BME280;47366;51.916;4.574;2023-05-02T08:21:09;102708.97;;;11.52;61.54
61506;BME280;47366;51.916;4.574;2023-05-02T08:23:34;102712.91;;;11.68;60.55
61506;BME280;47366;51.916;4.574;2023-05-02T08:26:01;102709.13;;;11.73;59.30
61506;BME280;47366;51.916;4.574;2023-05-02T08:28:27;102704.16;;;11.85;59.33
61506;BME280;47366;51.916;4.574;2023-05-02T08:30:52;102702.31;;;11.87;59.06
61506;BME280;47366;51.916;4.574;2023-05-02T08:33:17;102714.13;;;11.85;59.37
61506;BME280;47366;51.916;4.574;2023-05-02T08:35:43;102719.59;;;11.83;59.68
61506;BME280;47366;51.916;4.574;2023-05-02T08:38:08;102720.44;;;11.85;58.22
61506;BME280;47366;51.916;4.574;2023-05-02T08:40:34;102723.50;;;12.25;58.55
61506;BME280;47366;51.916;4.574;2023-05-02T08:43:00;102730.38;;;12.35;56.90
61506;BME280;47366;51.916;4.574;2023-05-02T08:45:30;102732.81;;;12.65;56.87
61506;BME280;47366;51.916;4.574;2023-05-02T08:47:56;102720.25;;;13.28;56.03
61506;BME280;47366;51.916;4.574;2023-05-02T08:50:24;102729.25;;;13.92;55.56
61506;BME280;47366;51.916;4.574;2023-05-02T08:52:50;102731.75;;;14.17;52.45
61506;BME280;47366;51.916;4.574;2023-05-02T08:55:16;102735.88;;;13.86;53.93
61506;BME280;47366;51.916;4.574;2023-05-02T08:57:42;102742.31;;;13.43;54.70
61506;BME280;47366;51.916;4.574;2023-05-02T09:00:08;102740.03;;;13.10;55.61
61506;BME280;47366;51.916;4.574;2023-05-02T09:05:23;102749.03;;;12.90;55.06
61506;BME280;47366;51.916;4.574;2023-05-02T09:07:50;102754.13;;;12.99;53.51
61506;BME280;47366;51.916;4.574;2023-05-02T09:10:15;102743.16;;;13.45;54.34
61506;BME280;47366;51.916;4.574;2023-05-02T09:12:41;102747.22;;;13.55;54.24
61506;BME280;47366;51.916;4.574;2023-05-02T09:15:11;102754.72;;;13.50;52.76
61506;BME280;47366;51.916;4.574;2023-05-02T09:17:39;102763.97;;;13.24;53.16
61506;BME280;47366;51.916;4.574;2023-05-02T09:20:05;102759.28;;;13.49;53.17
61506;BME280;47366;51.916;4.574;2023-05-02T09:22:30;102760.41;;;13.44;52.52
61506;BME280;47366;51.916;4.574;2023-05-02T09:24:56;102755.16;;;13.61;51.96
61506;BME280;47366;51.916;4.574;2023-05-02T09:27:21;102759.81;;;14.19;50.29
61506;BME280;47366;51.916;4.574;2023-05-02T09:29:46;102760.72;;;14.59;50.79
61506;BME280;47366;51.916;4.574;2023-05-02T09:32:12;102758.59;;;14.45;50.74
61506;BME280;47366;51.916;4.574;2023-05-02T09:34:37;102760.78;;;14.57;49.53
61506;BME280;47366;51.916;4.574;2023-05-02T09:37:03;102762.25;;;14.83;49.78
61506;BME280;47366;51.916;4.574;2023-05-02T09:39:29;102769.09;;;14.73;50.88
61506;BME280;47366;51.916;4.574;2023-05-02T09:41:55;102776.31;;;14.74;48.96
61506;BME280;47366;51.916;4.574;2023-05-02T09:44:23;102772.16;;;15.03;50.39
61506;BME280;47366;51.916;4.574;2023-05-02T09:46:53;102774.84;;;15.22;49.51
61506;BME280;47366;51.916;4.574;2023-05-02T09:49:38;102766.72;;;15.57;49.16
61506;BME280;47366;51.916;4.574;2023-05-02T09:52:15;102775.72;;;15.94;48.49
61506;BME280;47366;51.916;4.574;2023-05-02T09:54:41;102775.25;;;16.03;46.83
61506;BME280;47366;51.916;4.574;2023-05-02T09:57:06;102773.00;;;15.94;48.06
61506;BME280;47366;51.916;4.574;2023-05-02T09:59:32;102776.25;;;15.48;48.54
61506;BME280;47366;51.916;4.574;2023-05-02T10:02:06;102782.13;;;15.04;49.24
61506;BME280;47366;51.916;4.574;2023-05-02T10:04:33;102784.22;;;14.61;50.64
61506;BME280;47366;51.916;4.574;2023-05-02T10:07:01;102780.47;;;14.83;48.79
61506;BME280;47366;51.916;4.574;2023-05-02T10:09:28;102776.97;;;14.98;50.42
61506;BME280;47366;51.916;4.574;2023-05-02T10:11:54;102782.94;;;15.06;49.76
61506;BME280;47366;51.916;4.574;2023-05-02T10:14:22;102769.31;;;14.88;49.48
61506;BME280;47366;51.916;4.574;2023-05-02T10:17:11;102784.13;;;14.63;50.37
61506;BME280;47366;51.916;4.574;2023-05-02T10:19:46;102779.09;;;14.54;49.06
61506;BME280;47366;51.916;4.574;2023-05-02T10:22:13;102784.94;;;14.65;50.06
61506;BME280;47366;51.916;4.574;2023-05-02T10:24:40;102785.69;;;14.69;49.26
61506;BME280;47366;51.916;4.574;2023-05-02T10:27:06;102788.38;;;14.50;49.82
61506;BME280;47366;51.916;4.574;2023-05-02T10:29:32;102781.81;;;14.54;50.21
61506;BME280;47366;51.916;4.574;2023-05-02T10:31:59;102784.00;;;14.45;50.04
61506;BME280;47366;51.916;4.574;2023-05-02T10:34:26;102784.78;;;14.87;47.94
61506;BME280;47366;51.916;4.574;2023-05-02T10:36:51;102783.56;;;15.31;48.60
61506;BME280;47366;51.916;4.574;2023-05-02T10:39:18;102774.78;;;15.78;47.16
61506;BME280;47366;51.916;4.574;2023-05-02T10:41:50;102781.28;;;16.10;45.05
61506;BME280;47366;51.916;4.574;2023-05-02T10:44:17;102780.47;;;16.08;47.47
61506;BME280;47366;51.916;4.574;2023-05-02T10:46:43;102789.09;;;16.00;45.71
61506;BME280;47366;51.916;4.574;2023-05-02T10:49:10;102784.03;;;15.75;47.98
61506;BME280;47366;51.916;4.574;2023-05-02T10:51:39;102780.94;;;15.64;47.52
61506;BME280;47366;51.916;4.574;2023-05-02T10:54:23;102784.41;;;15.85;47.68
61506;BME280;47366;51.916;4.574;2023-05-02T10:59:40;102787.06;;;16.37;44.68
61506;BME280;47366;51.916;4.574;2023-05-02T11:05:02;102786.50;;;16.81;43.11
61506;BME280;47366;51.916;4.574;2023-05-02T11:07:29;102788.78;;;16.89;44.64
61506;BME280;47366;51.916;4.574;2023-05-02T11:15:09;102793.41;;;17.04;43.41
61506;BME280;47366;51.916;4.574;2023-05-02T11:17:57;102791.97;;;17.13;43.67
61506;BME280;47366;51.916;4.574;2023-05-02T11:20:22;102796.16;;;17.34;44.07
61506;BME280;47366;51.916;4.574;2023-05-02T11:22:48;102792.88;;;17.44;43.34
61506;BME280;47366;51.916;4.574;2023-05-02T11:25:35;102788.63;;;17.54;43.90
61506;BME280;47366;51.916;4.574;2023-05-02T11:28:01;102782.66;;;17.47;43.61
61506;BME280;47366;51.916;4.574;2023-05-02T11:30:43;102792.13;;;17.26;42.14
61506;BME280;47366;51.916;4.574;2023-05-02T11:33:10;102793.16;;;17.23;42.41
61506;BME280;47366;51.916;4.574;2023-05-02T11:35:40;102792.75;;;17.31;42.04
61506;BME280;47366;51.916;4.574;2023-05-02T11:38:14;102798.09;;;17.48;41.80
61506;BME280;47366;51.916;4.574;2023-05-02T11:40:40;102800.19;;;17.59;42.68
61506;BME280;47366;51.916;4.574;2023-05-02T11:43:16;102799.75;;;17.67;42.05
61506;BME280;47366;51.916;4.574;2023-05-02T11:45:42;102798.28;;;17.75;42.01
61506;BME280;47366;51.916;4.574;2023-05-02T11:48:09;102799.34;;;17.73;40.26
61506;BME280;47366;51.916;4.574;2023-05-02T11:50:47;102804.75;;;17.90;41.09
61506;BME280;47366;51.916;4.574;2023-05-02T11:53:15;102811.28;;;17.41;42.06
61506;BME280;47366;51.916;4.574;2023-05-02T11:56:03;102827.66;;;17.11;42.76
61506;BME280;47366;51.916;4.574;2023-05-02T11:58:30;102821.28;;;17.11;43.02
61506;BME280;47366;51.916;4.574;2023-05-02T12:01:12;102813.50;;;17.35;42.00
61506;BME280;47366;51.916;4.574;2023-05-02T12:03:38;102815.66;;;17.60;42.67
61506;BME280;47366;51.916;4.574;2023-05-02T12:06:11;102819.53;;;17.26;41.16
61506;BME280;47366;51.916;4.574;2023-05-02T12:08:38;102817.25;;;17.02;42.79
61506;BME280;47366;51.916;4.574;2023-05-02T12:11:03;102812.19;;;17.26;42.24
61506;BME280;47366;51.916;4.574;2023-05-02T12:13:29;102813.47;;;17.51;43.19
61506;BME280;47366;51.916;4.574;2023-05-02T12:15:55;102818.22;;;17.63;43.21
61506;BME280;47366;51.916;4.574;2023-05-02T12:18:22;102826.09;;;17.69;42.52
61506;BME280;47366;51.916;4.574;2023-05-02T12:20:49;102820.88;;;17.80;41.90
61506;BME280;47366;51.916;4.574;2023-05-02T12:23:16;102824.31;;;17.68;41.81
61506;BME280;47366;51.916;4.574;2023-05-02T12:25:41;102832.16;;;17.74;41.58
61506;BME280;47366;51.916;4.574;2023-05-02T12:28:08;102829.09;;;17.80;41.37
61506;BME280;47366;51.916;4.574;2023-05-02T12:30:35;102834.63;;;17.95;42.33
61506;BME280;47366;51.916;4.574;2023-05-02T12:33:03;102845.47;;;17.96;40.71
61506;BME280;47366;51.916;4.574;2023-05-02T12:35:29;102836.69;;;18.06;41.99
61506;BME280;47366;51.916;4.574;2023-05-02T12:38:11;102838.59;;;18.19;41.19
61506;BME280;47366;51.916;4.574;2023-05-02T12:40:37;102842.31;;;18.33;40.75
61506;BME280;47366;51.916;4.574;2023-05-02T12:43:03;102838.53;;;18.35;41.46
61506;BME280;47366;51.916;4.574;2023-05-02T12:45:31;102834.59;;;18.39;40.37
61506;BME280;47366;51.916;4.574;2023-05-02T12:48:01;102840.78;;;18.29;41.10
61506;BME280;47366;51.916;4.574;2023-05-02T12:50:38;102843.97;;;18.21;39.30
61506;BME280;47366;51.916;4.574;2023-05-02T12:53:04;102846.81;;;18.19;40.67
61506;BME280;47366;51.916;4.574;2023-05-02T12:55:30;102851.91;;;18.25;42.35
61506;BME280;47366;51.916;4.574;2023-05-02T13:00:25;102848.53;;;18.06;40.75
61506;BME280;47366;51.916;4.574;2023-05-02T13:02:50;102864.09;;;17.91;41.35
61506;BME280;47366;51.916;4.574;2023-05-02T13:05:17;102854.09;;;17.90;40.48
61506;BME280;47366;51.916;4.574;2023-05-02T13:07:43;102865.56;;;17.97;41.12
61506;BME280;47366;51.916;4.574;2023-05-02T13:10:08;102865.06;;;17.90;40.67
61506;BME280;47366;51.916;4.574;2023-05-02T13:12:35;102866.63;;;17.94;38.42
61506;BME280;47366;51.916;4.574;2023-05-02T13:15:06;102864.00;;;17.93;40.36
61506;BME280;47366;51.916;4.574;2023-05-02T13:17:33;102873.03;;;17.95;40.31
61506;BME280;47366;51.916;4.574;2023-05-02T13:19:59;102862.66;;;18.00;40.18
61506;BME280;47366;51.916;4.574;2023-05-02T13:22:25;102864.41;;;18.01;39.88
61506;BME280;47366;51.916;4.574;2023-05-02T13:24:51;102865.56;;;17.97;40.00
61506;BME280;47366;51.916;4.574;2023-05-02T13:27:17;102870.56;;;17.90;39.34
61506;BME280;47366;51.916;4.574;2023-05-02T13:29:45;102865.34;;;17.70;39.91
61506;BME280;47366;51.916;4.574;2023-05-02T13:32:10;102860.91;;;17.67;41.17
61506;BME280;47366;51.916;4.574;2023-05-02T13:34:36;102866.06;;;17.73;39.96
61506;BME280;47366;51.916;4.574;2023-05-02T13:37:01;102868.34;;;17.65;40.77
61506;BME280;47366;51.916;4.574;2023-05-02T13:39:27;102870.22;;;17.65;41.00
61506;BME280;47366;51.916;4.574;2023-05-02T13:41:52;102875.97;;;17.60;40.71
61506;BME280;47366;51.916;4.574;2023-05-02T13:44:17;102882.88;;;17.35;40.98
61506;BME280;47366;51.916;4.574;2023-05-02T13:46:43;102875.63;;;17.18;40.82
61506;BME280;47366;51.916;4.574;2023-05-02T13:49:08;102885.06;;;17.13;42.40
61506;BME280;47366;51.916;4.574;2023-05-02T13:51:33;102881.38;;;17.14;40.53
61506;BME280;47366;51.916;4.574;2023-05-02T13:53:59;102881.19;;;17.17;41.28
61506;BME280;47366;51.916;4.574;2023-05-02T13:56:25;102884.38;;;17.25;40.88
61506;BME280;47366;51.916;4.574;2023-05-02T13:58:50;102892.47;;;17.11;40.83
61506;BME280;47366;51.916;4.574;2023-05-02T14:01:16;102877.72;;;16.97;42.35
61506;BME280;47366;51.916;4.574;2023-05-02T14:03:41;102870.41;;;16.98;41.98
61506;BME280;47366;51.916;4.574;2023-05-02T14:06:07;102887.63;;;17.00;42.02
61506;BME280;47366;51.916;4.574;2023-05-02T14:08:32;102887.06;;;16.93;40.93
61506;BME280;47366;51.916;4.574;2023-05-02T14:10:57;102880.72;;;16.75;41.50
61506;BME280;47366;51.916;4.574;2023-05-02T14:13:23;102890.97;;;16.72;41.66
61506;BME280;47366;51.916;4.574;2023-05-02T14:15:49;102898.72;;;16.46;41.50
61506;BME280;47366;51.916;4.574;2023-05-02T14:18:14;102895.13;;;16.46;40.89
61506;BME280;47366;51.916;4.574;2023-05-02T14:20:41;102895.69;;;16.35;42.00
61506;BME280;47366;51.916;4.574;2023-05-02T14:23:06;102901.63;;;16.43;42.14
61506;BME280;47366;51.916;4.574;2023-05-02T14:25:31;102902.44;;;16.28;40.41
61506;BME280;47366;51.916;4.574;2023-05-02T14:27:57;102892.53;;;16.25;42.08
61506;BME280;47366;51.916;4.574;2023-05-02T14:30:22;102896.44;;;16.21;42.66
61506;BME280;47366;51.916;4.574;2023-05-02T14:32:47;102898.13;;;16.24;41.61
61506;BME280;47366;51.916;4.574;2023-05-02T14:35:13;102897.56;;;16.17;41.76
61506;BME280;47366;51.916;4.574;2023-05-02T14:37:38;102887.66;;;16.14;41.86
61506;BME280;47366;51.916;4.574;2023-05-02T14:40:04;102879.53;;;16.13;41.03
61506;BME280;47366;51.916;4.574;2023-05-02T14:42:30;102875.22;;;16.09;41.57
61506;BME280;47366;51.916;4.574;2023-05-02T14:44:55;102876.31;;;16.05;42.21
61506;BME280;47366;51.916;4.574;2023-05-02T14:47:21;102882.75;;;16.04;42.16
61506;BME280;47366;51.916;4.574;2023-05-02T14:49:46;102884.81;;;15.99;42.03
61506;BME280;47366;51.916;4.574;2023-05-02T14:52:12;102875.59;;;15.84;42.06
61506;BME280;47366;51.916;4.574;2023-05-02T14:54:37;102886.75;;;15.79;42.02
61506;BME280;47366;51.916;4.574;2023-05-02T14:57:02;102886.09;;;15.74;40.97
61506;BME280;47366;51.916;4.574;2023-05-02T14:59:28;102875.59;;;15.65;42.78
61506;BME280;47366;51.916;4.574;2023-05-02T15:01:54;102875.88;;;15.59;42.91
61506;BME280;47366;51.916;4.574;2023-05-02T15:04:19;102877.69;;;15.60;42.90
61506;BME280;47366;51.916;4.574;2023-05-02T15:06:45;102878.06;;;15.52;42.80
61506;BME280;47366;51.916;4.574;2023-05-02T15:09:12;102868.75;;;15.56;43.23
61506;BME280;47366;51.916;4.574;2023-05-02T15:11:38;102873.16;;;15.59;42.84
61506;BME280;47366;51.916;4.574;2023-05-02T15:14:03;102870.91;;;15.49;43.16
61506;BME280;47366;51.916;4.574;2023-05-02T15:16:28;102876.44;;;15.48;42.76
61506;BME280;47366;51.916;4.574;2023-05-02T15:18:54;102879.66;;;15.56;43.29
61506;BME280;47366;51.916;4.574;2023-05-02T15:21:20;102889.00;;;15.52;42.87
61506;BME280;47366;51.916;4.574;2023-05-02T15:23:46;102881.47;;;15.38;43.06
61506;BME280;47366;51.916;4.574;2023-05-02T15:26:11;102886.94;;;15.38;43.63
61506;BME280;47366;51.916;4.574;2023-05-02T15:28:37;102893.34;;;15.37;43.23
61506;BME280;47366;51.916;4.574;2023-05-02T15:31:03;102890.50;;;15.40;42.61
61506;BME280;47366;51.916;4.574;2023-05-02T15:33:28;102890.72;;;15.36;42.59
61506;BME280;47366;51.916;4.574;2023-05-02T15:35:56;102882.47;;;15.18;43.77
61506;BME280;47366;51.916;4.574;2023-05-02T15:38:24;102884.94;;;15.04;43.51
61506;BME280;47366;51.916;4.574;2023-05-02T15:40:58;102890.09;;;14.91;44.17
61506;BME280;47366;51.916;4.574;2023-05-02T15:43:23;102894.84;;;14.88;44.01
61506;BME280;47366;51.916;4.574;2023-05-02T15:45:53;102904.78;;;14.89;43.58
61506;BME280;47366;51.916;4.574;2023-05-02T15:48:20;102903.03;;;14.88;43.52
61506;BME280;47366;51.916;4.574;2023-05-02T15:50:46;102908.47;;;14.88;43.28
61506;BME280;47366;51.916;4.574;2023-05-02T15:53:15;102905.34;;;14.76;43.48
61506;BME280;47366;51.916;4.574;2023-05-02T15:55:42;102906.31;;;14.75;43.91
61506;BME280;47366;51.916;4.574;2023-05-02T15:58:17;102902.03;;;14.70;44.37
61506;BME280;47366;51.916;4.574;2023-05-02T16:00:43;102904.69;;;14.71;44.25
61506;BME280;47366;51.916;4.574;2023-05-02T16:03:09;102909.53;;;14.64;44.37
61506;BME280;47366;51.916;4.574;2023-05-02T16:05:35;102902.22;;;14.65;44.59
61506;BME280;47366;51.916;4.574;2023-05-02T16:08:01;102898.00;;;14.58;43.99
61506;BME280;47366;51.916;4.574;2023-05-02T16:10:26;102901.81;;;14.54;45.06
61506;BME280;47366;51.916;4.574;2023-05-02T16:12:52;102894.72;;;14.50;44.85
61506;BME280;47366;51.916;4.574;2023-05-02T16:15:18;102901.00;;;14.52;44.31
61506;BME280;47366;51.916;4.574;2023-05-02T16:17:43;102904.81;;;14.48;45.27
61506;BME280;47366;51.916;4.574;2023-05-02T16:20:09;102898.06;;;14.36;44.32
61506;BME280;47366;51.916;4.574;2023-05-02T16:22:34;102903.66;;;14.33;45.49
61506;BME280;47366;51.916;4.574;2023-05-02T16:25:03;102908.50;;;14.26;45.46
61506;BME280;47366;51.916;4.574;2023-05-02T16:27:28;102900.47;;;14.23;45.35
61506;BME280;47366;51.916;4.574;2023-05-02T16:29:57;102899.69;;;14.19;45.22
61506;BME280;47366;51.916;4.574;2023-05-02T16:32:23;102908.66;;;14.23;45.17
61506;BME280;47366;51.916;4.574;2023-05-02T16:34:50;102906.13;;;14.18;45.75
61506;BME280;47366;51.916;4.574;2023-05-02T16:37:17;102911.13;;;14.07;45.51
61506;BME280;47366;51.916;4.574;2023-05-02T16:39:42;102911.00;;;14.10;45.84
61506;BME280;47366;51.916;4.574;2023-05-02T16:42:10;102910.56;;;13.99;45.66
61506;BME280;47366;51.916;4.574;2023-05-02T16:44:36;102905.53;;;13.90;45.69
61506;BME280;47366;51.916;4.574;2023-05-02T16:47:02;102899.06;;;13.92;45.79
61506;BME280;47366;51.916;4.574;2023-05-02T16:49:28;102898.50;;;13.84;45.89
61506;BME280;47366;51.916;4.574;2023-05-02T16:51:53;102902.38;;;13.78;45.84
61506;BME280;47366;51.916;4.574;2023-05-02T16:54:20;102903.63;;;13.70;45.70
61506;BME280;47366;51.916;4.574;2023-05-02T16:56:45;102899.66;;;13.56;45.83
61506;BME280;47366;51.916;4.574;2023-05-02T16:59:11;102903.91;;;13.64;45.90
61506;BME280;47366;51.916;4.574;2023-05-02T17:01:36;102901.09;;;13.65;45.80
61506;BME280;47366;51.916;4.574;2023-05-02T17:04:02;102905.81;;;13.62;46.13
61506;BME280;47366;51.916;4.574;2023-05-02T17:06:28;102906.50;;;13.67;46.25
61506;BME280;47366;51.916;4.574;2023-05-02T17:08:55;102897.25;;;13.71;46.14
61506;BME280;47366;51.916;4.574;2023-05-02T17:11:21;102889.56;;;13.58;45.93
61506;BME280;47366;51.916;4.574;2023-05-02T17:13:48;102891.56;;;13.55;46.13
61506;BME280;47366;51.916;4.574;2023-05-02T17:16:14;102896.34;;;13.48;46.63
61506;BME280;47366;51.916;4.574;2023-05-02T17:18:42;102894.00;;;13.39;46.27
61506;BME280;47366;51.916;4.574;2023-05-02T17:21:07;102908.94;;;13.29;46.73
61506;BME280;47366;51.916;4.574;2023-05-02T17:23:33;102907.25;;;13.25;46.95
61506;BME280;47366;51.916;4.574;2023-05-02T17:25:58;102915.75;;;13.15;46.91
61506;BME280;47366;51.916;4.574;2023-05-02T17:28:24;102921.22;;;13.15;47.21
61506;BME280;47366;51.916;4.574;2023-05-02T17:30:49;102916.06;;;13.08;47.32
61506;BME280;47366;51.916;4.574;2023-05-02T17:33:19;102939.63;;;13.09;47.48
61506;BME280;47366;51.916;4.574;2023-05-02T17:35:45;102939.19;;;12.96;47.66
61506;BME280;47366;51.916;4.574;2023-05-02T17:38:10;102936.25;;;13.02;47.35
61506;BME280;47366;51.916;4.574;2023-05-02T17:40:36;102940.16;;;12.95;47.51
61506;BME280;47366;51.916;4.574;2023-05-02T17:43:01;102935.72;;;12.92;47.85
61506;BME280;47366;51.916;4.574;2023-05-02T17:45:27;102928.81;;;12.82;47.99
61506;BME280;47366;51.916;4.574;2023-05-02T17:47:53;102937.28;;;12.74;48.03
61506;BME280;47366;51.916;4.574;2023-05-02T17:50:18;102933.91;;;12.68;48.38
61506;BME280;47366;51.916;4.574;2023-05-02T17:52:43;102932.13;;;12.67;48.76
61506;BME280;47366;51.916;4.574;2023-05-02T17:55:09;102927.03;;;12.58;48.47
61506;BME280;47366;51.916;4.574;2023-05-02T17:57:34;102939.91;;;12.52;48.75
61506;BME280;47366;51.916;4.574;2023-05-02T18:00:00;102938.22;;;12.48;49.30
61506;BME280;47366;51.916;4.574;2023-05-02T18:02:28;102936.34;;;12.50;49.25
61506;BME280;47366;51.916;4.574;2023-05-02T18:04:53;102936.44;;;12.49;49.29
61506;BME280;47366;51.916;4.574;2023-05-02T18:07:19;102932.25;;;12.39;49.52
61506;BME280;47366;51.916;4.574;2023-05-02T18:09:51;102946.66;;;12.41;49.69
61506;BME280;47366;51.916;4.574;2023-05-02T18:12:17;102939.78;;;12.30;49.64
61506;BME280;47366;51.916;4.574;2023-05-02T18:14:42;102932.81;;;12.23;49.81
61506;BME280;47366;51.916;4.574;2023-05-02T18:17:08;102932.84;;;12.22;49.99
61506;BME280;47366;51.916;4.574;2023-05-02T18:19:33;102936.56;;;12.19;50.04
61506;BME280;47366;51.916;4.574;2023-05-02T18:21:59;102931.41;;;12.11;50.08
61506;BME280;47366;51.916;4.574;2023-05-02T18:24:24;102939.81;;;12.04;50.55
61506;BME280;47366;51.916;4.574;2023-05-02T18:26:49;102948.84;;;12.04;50.31
61506;BME280;47366;51.916;4.574;2023-05-02T18:29:15;102956.03;;;12.05;50.31
61506;BME280;47366;51.916;4.574;2023-05-02T18:31:40;102956.31;;;11.98;50.50
61506;BME280;47366;51.916;4.574;2023-05-02T18:34:06;102951.81;;;11.97;50.87
61506;BME280;47366;51.916;4.574;2023-05-02T18:36:32;102952.13;;;11.87;50.71
61506;BME280;47366;51.916;4.574;2023-05-02T18:38:57;102966.91;;;11.77;50.97
61506;BME280;47366;51.916;4.574;2023-05-02T18:41:24;102966.84;;;11.79;51.10
61506;BME280;47366;51.916;4.574;2023-05-02T18:43:50;102957.31;;;11.65;51.25
61506;BME280;47366;51.916;4.574;2023-05-02T18:46:15;102955.81;;;11.57;51.48
61506;BME280;47366;51.916;4.574;2023-05-02T18:48:40;102955.28;;;11.44;51.59